createdAt,value
2022-08-05T00:00:16.263Z,3.72
2022-08-05T00:02:50.437Z,5.32
2022-08-05T00:06:02.941Z,3.70
2022-08-05T00:08:05.519Z,4.00
2022-08-05T00:10:51.938Z,4.28
2022-08-05T00:13:19.793Z,4.10
2022-08-05T00:15:55.249Z,5.35
2022-08-05T00:18:23.195Z,4.25
2022-08-05T00:20:51.792Z,4.28
2022-08-05T00:23:44.522Z,4.05
2022-08-05T00:26:07.173Z,4.13
2022-08-05T00:28:34.726Z,4.68
2022-08-05T00:31:04.400Z,4.47
2022-08-05T00:34:55.707Z,4.10
2022-08-05T00:37:12.797Z,4.18
2022-08-05T00:39:05.559Z,4.30
2022-08-05T00:41:52.116Z,4.40
2022-08-05T00:44:30.637Z,3.92
2022-08-05T00:47:03.649Z,4.00
2022-08-05T00:49:32.659Z,5.70
2022-08-05T00:52:11.330Z,4.28
2022-08-05T00:54:38.756Z,4.82
2022-08-05T00:57:05.574Z,4.63
2022-08-05T00:59:42.058Z,3.83
2022-08-05T01:02:11.533Z,5.15
2022-08-05T01:04:38.265Z,4.00
2022-08-05T01:07:13.805Z,3.63
2022-08-05T01:09:43.827Z,4.57
2022-08-05T01:12:18.728Z,6.10
2022-08-05T01:14:58.296Z,4.10
2022-08-05T01:17:44.115Z,4.50
2022-08-05T01:20:32.446Z,3.70
2022-08-05T01:23:23.211Z,4.00
2022-08-05T01:25:53.740Z,4.10
2022-08-05T01:28:53.087Z,4.30
2022-08-05T01:31:22.588Z,4.38
2022-08-05T01:33:56.974Z,4.53
2022-08-05T01:36:29.262Z,6.00
2022-08-05T01:39:01.011Z,4.68
2022-08-05T01:41:32.221Z,5.50
2022-08-05T01:44:01.786Z,4.57
2022-08-05T01:46:42.332Z,4.63
2022-08-05T01:49:24.383Z,4.57
2022-08-05T01:51:56.265Z,5.65
2022-08-05T01:54:29.384Z,4.40
2022-08-05T01:58:29.946Z,5.13
2022-08-05T01:59:48.260Z,4.50
2022-08-05T02:02:16.891Z,4.65
2022-08-05T02:04:49.562Z,4.82
2022-08-05T02:07:22.249Z,4.40
2022-08-05T02:09:50.405Z,4.57
2022-08-05T02:12:36.445Z,4.72
2022-08-05T02:15:21.243Z,4.82
2022-08-05T02:18:31.343Z,5.07
2022-08-05T02:20:58.744Z,5.60
2022-08-05T02:23:33.691Z,5.13
2022-08-05T02:26:02.879Z,4.68
2022-08-05T02:28:38.134Z,6.47
2022-08-05T02:31:16.511Z,4.68
2022-08-05T02:33:57.776Z,4.60
2022-08-05T02:36:27.571Z,5.00
2022-08-05T02:38:59.990Z,5.50
2022-08-05T02:41:43.172Z,4.85
2022-08-05T02:44:16.944Z,4.50
2022-08-05T02:46:58.779Z,4.93
2022-08-05T02:49:37.118Z,4.40
2022-08-05T02:52:08.021Z,5.40
2022-08-05T02:54:42.161Z,5.32
2022-08-05T02:58:10.279Z,5.47
2022-08-05T03:00:04.698Z,4.30
2022-08-05T03:02:40.683Z,7.32
2022-08-05T03:05:11.708Z,4.68
2022-08-05T03:08:01.649Z,6.35
2022-08-05T03:10:27.757Z,4.43
2022-08-05T03:12:54.692Z,4.55
2022-08-05T03:15:24.696Z,5.03
2022-08-05T03:17:55.477Z,4.75
2022-08-05T03:20:23.629Z,4.25
2022-08-05T03:22:52.211Z,4.63
2022-08-05T03:25:33.878Z,4.68
2022-08-05T03:28:08.831Z,7.93
2022-08-05T03:30:36.034Z,6.30
2022-08-05T03:33:05.838Z,4.85
2022-08-05T03:35:33.724Z,5.00
2022-08-05T03:38:01.455Z,4.63
2022-08-05T03:40:32.071Z,5.38
2022-08-05T03:43:01.453Z,4.75
2022-08-05T03:45:57.305Z,4.93
2022-08-05T03:48:29.633Z,5.10
2022-08-05T03:52:37.323Z,5.60
2022-08-05T03:55:00.288Z,4.57
2022-08-05T03:57:41.369Z,5.40
2022-08-05T04:00:07.057Z,5.50
2022-08-05T04:02:38.532Z,5.07
2022-08-05T04:05:09.538Z,6.22
2022-08-05T04:07:57.615Z,7.82
2022-08-05T04:10:27.614Z,5.20
2022-08-05T04:12:58.737Z,5.38
2022-08-05T04:15:27.837Z,4.53
2022-08-05T04:18:03.151Z,4.72
2022-08-05T04:20:29.931Z,4.70
2022-08-05T04:22:58.526Z,5.25
2022-08-05T04:25:56.491Z,4.35
2022-08-05T04:28:12.955Z,5.13
2022-08-05T04:30:39.811Z,7.25
2022-08-05T04:33:06.555Z,4.50
2022-08-05T04:36:16.236Z,5.97
2022-08-05T04:38:21.051Z,6.15
2022-08-05T04:40:50.980Z,5.10
2022-08-05T04:43:17.878Z,5.85
2022-08-05T04:45:54.994Z,4.80
2022-08-05T04:48:27.948Z,4.70
2022-08-05T04:51:03.044Z,5.25
2022-08-05T04:53:33.309Z,4.28
2022-08-05T04:56:33.789Z,4.47
2022-08-05T04:58:49.535Z,6.50
2022-08-05T05:01:33.672Z,4.07
2022-08-05T05:04:03.185Z,4.38
2022-08-05T05:06:38.966Z,4.68
2022-08-05T05:09:17.270Z,4.43
2022-08-05T05:11:54.445Z,4.60
2022-08-05T05:14:31.442Z,4.43
2022-08-05T05:16:59.810Z,5.13
2022-08-05T05:19:36.191Z,4.75
2022-08-05T05:22:22.696Z,7.75
2022-08-05T05:24:58.091Z,5.07
2022-08-05T05:27:44.615Z,4.60
2022-08-05T05:30:15.477Z,6.75
2022-08-05T05:32:56.161Z,5.10
2022-08-05T05:35:23.196Z,5.60
2022-08-05T05:37:59.381Z,6.32
2022-08-05T05:40:28.689Z,4.47
2022-08-05T05:42:57.296Z,4.35
2022-08-05T05:45:24.779Z,5.30
2022-08-05T05:48:07.088Z,3.53
2022-08-05T05:50:40.998Z,5.03
2022-08-05T05:53:20.899Z,5.25
2022-08-05T05:55:51.550Z,4.90
2022-08-05T05:58:30.113Z,6.40
2022-08-05T06:01:12.256Z,7.55
2022-08-05T06:04:00.700Z,7.43
2022-08-05T06:06:33.035Z,6.03
2022-08-05T06:09:00.267Z,4.65
2022-08-05T06:11:28.958Z,7.68
2022-08-05T06:13:56.184Z,5.18
2022-08-05T06:16:30.229Z,4.97
2022-08-05T06:19:00.860Z,5.20
2022-08-05T06:21:36.668Z,5.47
2022-08-05T06:24:12.180Z,6.22
2022-08-05T06:26:51.089Z,4.82
2022-08-05T06:29:26.488Z,7.63
2022-08-05T06:32:05.890Z,3.35
2022-08-05T06:34:53.510Z,4.35
2022-08-05T06:37:56.082Z,3.53
2022-08-05T06:40:10.170Z,6.05
2022-08-05T06:42:37.508Z,6.70
2022-08-05T06:45:08.583Z,8.88
2022-08-05T06:48:36.208Z,5.50
2022-08-05T06:50:24.889Z,7.05
2022-08-05T06:53:03.955Z,3.85
2022-08-05T06:55:38.308Z,6.25
2022-08-05T06:58:20.029Z,3.00
2022-08-05T07:00:58.619Z,5.57
2022-08-05T07:03:28.064Z,3.30
2022-08-05T07:06:06.086Z,5.68
2022-08-05T07:08:41.903Z,3.30
2022-08-05T07:11:15.029Z,4.75
2022-08-05T07:14:01.674Z,3.58
2022-08-05T07:18:00.305Z,5.32
2022-08-05T07:22:28.215Z,4.55
2022-08-05T07:24:58.002Z,3.78
2022-08-05T07:27:27.238Z,5.68
2022-08-05T07:30:21.924Z,3.75
2022-08-05T07:32:40.950Z,3.72
2022-08-05T07:36:05.227Z,2.75
2022-08-05T07:37:59.075Z,7.32
2022-08-05T07:40:33.102Z,2.67
2022-08-05T07:43:04.634Z,2.92
2022-08-05T07:45:57.700Z,3.25
2022-08-05T07:49:00.478Z,5.93
2022-08-05T07:51:22.987Z,4.57
2022-08-05T07:53:51.305Z,2.70
2022-08-05T07:56:59.832Z,3.28
2022-08-05T07:59:05.409Z,4.57
2022-08-05T08:01:35.494Z,2.88
2022-08-05T08:04:23.009Z,3.13
2022-08-05T08:07:07.922Z,2.15
2022-08-05T08:09:35.140Z,2.92
2022-08-05T08:12:12.525Z,2.83
2022-08-05T08:14:46.606Z,2.70
2022-08-05T08:17:16.172Z,3.03
2022-08-05T08:20:43.012Z,2.78
2022-08-05T08:22:32.561Z,1.70
2022-08-05T08:25:16.512Z,2.08
2022-08-05T08:27:47.651Z,2.90
2022-08-05T08:30:30.389Z,1.65
2022-08-05T08:33:04.392Z,3.55
2022-08-05T08:35:35.012Z,2.15
2022-08-05T08:38:11.825Z,3.17
2022-08-05T08:40:50.408Z,1.95
2022-08-05T08:45:18.645Z,2.15
2022-08-05T08:46:06.670Z,2.35
2022-08-05T08:48:42.865Z,4.55
2022-08-05T08:52:03.268Z,3.05
2022-08-05T08:54:18.233Z,3.22
2022-08-05T08:56:47.628Z,2.00
2022-08-05T08:59:19.780Z,2.03
2022-08-05T09:01:57.232Z,1.70
2022-08-05T09:04:30.696Z,3.53
2022-08-05T09:06:57.847Z,2.28
2022-08-05T09:09:26.045Z,1.40
2022-08-05T09:12:15.318Z,2.53
2022-08-05T09:14:58.978Z,1.85
2022-08-05T09:17:42.518Z,1.92
2022-08-05T09:20:11.665Z,2.45
2022-08-05T09:23:05.529Z,2.03
2022-08-05T09:26:01.457Z,2.85
2022-08-05T09:28:24.524Z,1.40
2022-08-05T09:31:23.318Z,1.95
2022-08-05T09:34:06.760Z,3.28
2022-08-05T09:36:53.979Z,4.10
2022-08-05T09:39:27.797Z,1.98
2022-08-05T09:42:17.290Z,1.67
2022-08-05T09:44:52.750Z,1.27
2022-08-05T09:47:28.617Z,1.40
2022-08-05T09:50:03.716Z,2.08
2022-08-05T09:52:33.025Z,2.92
2022-08-05T09:55:58.550Z,3.53
2022-08-05T09:57:58.543Z,4.13
2022-08-05T10:00:26.397Z,2.33
2022-08-05T10:02:58.304Z,2.97
2022-08-05T10:05:27.853Z,1.60
2022-08-05T10:08:34.839Z,1.88
2022-08-05T10:10:50.303Z,1.98
2022-08-05T10:13:45.741Z,3.25
2022-08-05T10:16:42.068Z,2.35
2022-08-05T10:19:23.722Z,1.75
2022-08-05T10:22:09.110Z,3.78
2022-08-05T10:24:42.660Z,2.78
2022-08-05T10:27:14.956Z,2.50
2022-08-05T10:30:06.676Z,1.55
2022-08-05T10:32:52.208Z,2.38
2022-08-05T10:35:19.245Z,2.58
2022-08-05T10:37:47.516Z,2.88
2022-08-05T10:40:38.983Z,1.63
2022-08-05T10:43:35.753Z,2.75
2022-08-05T10:46:07.069Z,3.35
2022-08-05T10:48:52.741Z,2.30
2022-08-05T10:51:28.808Z,4.85
2022-08-05T10:54:01.965Z,2.05
2022-08-05T10:56:53.431Z,4.18
2022-08-05T11:00:01.820Z,1.83
2022-08-05T11:02:34.754Z,2.78
2022-08-05T11:05:10.633Z,2.03
2022-08-05T11:08:02.476Z,2.90
2022-08-05T11:10:37.354Z,2.60
2022-08-05T11:13:06.515Z,5.85
2022-08-05T11:16:01.307Z,2.72
2022-08-05T11:18:34.551Z,3.60
2022-08-05T11:21:06.238Z,3.47
2022-08-05T11:24:05.470Z,2.88
2022-08-05T11:26:43.333Z,2.10
2022-08-05T11:29:43.260Z,2.08
2022-08-05T11:32:39.462Z,2.95
2022-08-05T11:35:06.563Z,3.22
2022-08-05T11:38:26.797Z,2.40
2022-08-05T11:41:03.419Z,2.10
2022-08-05T11:44:04.949Z,4.75
2022-08-05T11:47:10.244Z,4.28
2022-08-05T11:49:27.844Z,2.15
2022-08-05T11:51:54.967Z,1.80
2022-08-05T11:54:34.982Z,2.88
2022-08-05T11:57:08.132Z,3.30
2022-08-05T11:59:50.941Z,2.97
2022-08-05T12:02:24.059Z,2.25
2022-08-05T12:04:59.487Z,3.58
2022-08-05T12:08:07.309Z,1.45
2022-08-05T12:10:18.220Z,2.08
2022-08-05T12:12:58.139Z,4.00
2022-08-05T12:15:33.271Z,2.50
2022-08-05T12:18:10.936Z,2.63
2022-08-05T12:20:39.522Z,3.15
2022-08-05T12:23:10.465Z,2.45
2022-08-05T12:25:56.743Z,2.08
2022-08-05T12:28:35.131Z,2.08
2022-08-05T12:31:04.322Z,2.00
2022-08-05T12:33:36.537Z,2.83
2022-08-05T12:36:08.096Z,2.60
2022-08-05T12:38:41.142Z,3.83
2022-08-05T12:41:17.622Z,2.08
2022-08-05T12:43:50.624Z,2.85
2022-08-05T12:46:28.979Z,3.25
2022-08-05T12:49:14.656Z,3.35
2022-08-05T12:52:12.603Z,2.10
2022-08-05T12:54:37.424Z,2.92
2022-08-05T12:57:09.661Z,1.52
2022-08-05T13:02:00.554Z,2.95
2022-08-05T13:03:08.257Z,2.38
2022-08-05T13:05:39.322Z,3.88
2022-08-05T13:08:09.171Z,3.10
2022-08-05T13:10:50.282Z,7.85
2022-08-05T13:14:04.929Z,2.13
2022-08-05T13:16:15.371Z,4.50
2022-08-05T13:18:58.373Z,6.15
2022-08-05T13:21:28.300Z,2.42
2022-08-05T13:24:05.567Z,2.97
2022-08-05T13:26:32.751Z,3.90
2022-08-05T13:28:59.652Z,5.05
2022-08-05T13:32:03.289Z,3.05
2022-08-05T13:34:21.985Z,2.65
2022-08-05T13:36:52.913Z,4.88
2022-08-05T13:39:24.820Z,2.40
2022-08-05T13:42:07.446Z,4.35
2022-08-05T13:44:45.010Z,3.10
2022-08-05T13:47:36.123Z,2.72
2022-08-05T13:50:04.590Z,3.42
2022-08-05T13:52:35.173Z,3.25
2022-08-05T13:55:07.966Z,5.38
2022-08-05T13:57:51.573Z,3.65
2022-08-05T14:00:26.941Z,1.60
2022-08-05T14:02:56.154Z,2.25
2022-08-05T14:05:48.508Z,2.03
2022-08-05T14:08:20.222Z,3.22
2022-08-05T14:10:48.658Z,1.42
2022-08-05T14:13:16.136Z,3.05
2022-08-05T14:16:05.835Z,1.98
2022-08-05T14:18:30.253Z,2.72
2022-08-05T14:20:57.073Z,1.60
2022-08-05T14:23:33.593Z,1.65
2022-08-05T14:26:03.593Z,2.05
2022-08-05T14:28:31.799Z,3.33
2022-08-05T14:31:00.508Z,2.03
2022-08-05T14:33:56.301Z,3.33
2022-08-05T14:36:15.164Z,2.15
2022-08-05T14:38:42.006Z,3.88
2022-08-05T14:41:09.155Z,2.05
2022-08-05T14:44:02.059Z,3.05
2022-08-05T14:46:28.892Z,3.20
2022-08-05T14:49:06.307Z,2.60
2022-08-05T14:51:35.951Z,1.88
2022-08-05T14:54:26.637Z,3.30
2022-08-05T14:56:53.694Z,3.55
2022-08-05T14:59:21.986Z,3.60
2022-08-05T15:01:49.935Z,3.88
2022-08-05T15:04:22.258Z,3.70
2022-08-05T15:06:53.131Z,3.63
2022-08-05T15:09:51.658Z,2.95
2022-08-05T15:12:08.884Z,4.03
2022-08-05T15:14:42.271Z,3.15
2022-08-05T15:17:47.753Z,4.10
2022-08-05T15:20:19.071Z,3.08
2022-08-05T15:22:54.193Z,4.53
2022-08-05T15:25:51.286Z,2.42
2022-08-05T15:28:13.166Z,4.40
2022-08-05T15:30:41.986Z,4.10
2022-08-05T15:33:10.718Z,2.80
2022-08-05T15:35:45.274Z,2.55
2022-08-05T15:38:35.720Z,2.40
2022-08-05T15:41:23.209Z,3.15
2022-08-05T15:43:47.355Z,2.10
2022-08-05T15:46:14.444Z,2.58
2022-08-05T15:48:54.711Z,2.35
2022-08-05T15:52:10.018Z,2.53
2022-08-05T15:54:16.936Z,3.08
2022-08-05T15:56:44.235Z,4.38
2022-08-05T15:59:21.664Z,2.95
2022-08-05T16:01:52.841Z,4.03
2022-08-05T16:04:25.146Z,2.60
2022-08-05T16:06:53.825Z,3.08
2022-08-05T16:09:22.970Z,2.63
2022-08-05T16:11:53.062Z,2.60
2022-08-05T16:14:21.117Z,4.10
2022-08-05T16:16:49.521Z,3.42
2022-08-05T16:19:25.434Z,2.80
2022-08-05T16:22:10.462Z,2.45
2022-08-05T16:24:41.419Z,2.30
2022-08-05T16:27:18.612Z,2.88
2022-08-05T16:29:50.902Z,3.88
2022-08-05T16:32:23.650Z,2.97
2022-08-05T16:34:56.811Z,2.97
2022-08-05T16:38:13.615Z,2.95
2022-08-05T16:40:24.769Z,5.28
2022-08-05T16:42:53.578Z,3.95
2022-08-05T16:46:07.488Z,2.75
2022-08-05T16:48:07.282Z,3.42
2022-08-05T16:50:37.188Z,5.63
2022-08-05T16:53:11.920Z,4.32
2022-08-05T16:55:46.528Z,4.88
2022-08-05T16:58:14.462Z,4.97
2022-08-05T17:00:41.432Z,4.18
2022-08-05T17:03:15.324Z,4.30
2022-08-05T17:05:51.798Z,3.88
2022-08-05T17:08:36.516Z,5.03
2022-08-05T17:11:12.684Z,3.28
2022-08-05T17:13:44.310Z,2.88
2022-08-05T17:16:30.149Z,3.30
2022-08-05T17:18:59.448Z,4.72
2022-08-05T17:21:36.366Z,5.90
2022-08-05T17:24:30.234Z,4.30
2022-08-05T17:26:57.134Z,5.80
2022-08-05T17:29:33.111Z,3.20
2022-08-05T17:32:07.171Z,3.85
2022-08-05T17:34:35.375Z,4.65
2022-08-05T17:37:02.271Z,5.53
2022-08-05T17:39:34.733Z,3.10
2022-08-05T17:42:17.860Z,3.70
2022-08-05T17:44:51.107Z,4.78
2022-08-05T17:47:22.177Z,3.80
2022-08-05T17:49:59.670Z,3.53
2022-08-05T17:52:32.341Z,7.28
2022-08-05T17:54:59.805Z,3.45
2022-08-05T17:57:27.694Z,3.53
2022-08-05T18:00:03.329Z,4.40
2022-08-05T18:02:33.236Z,3.67
2022-08-05T18:05:06.966Z,3.70
2022-08-05T18:07:41.929Z,4.68
2022-08-05T18:10:11.391Z,6.53
2022-08-05T18:12:39.161Z,3.75
2022-08-05T18:15:08.845Z,4.22
2022-08-05T18:18:01.596Z,5.32
2022-08-05T18:20:29.454Z,7.28
2022-08-05T18:23:00.361Z,5.20
2022-08-05T18:25:35.950Z,5.93
2022-08-05T18:28:06.071Z,7.13
2022-08-05T18:30:39.186Z,6.18
2022-08-05T18:33:08.546Z,6.35
2022-08-05T18:36:01.053Z,8.07
2022-08-05T18:38:28.554Z,7.97
2022-08-05T18:41:56.227Z,6.75
2022-08-05T18:43:43.281Z,6.57
2022-08-05T18:46:20.001Z,8.23
2022-08-05T18:48:52.163Z,7.18
2022-08-05T18:52:02.989Z,6.65
2022-08-05T18:54:31.362Z,7.28
2022-08-05T18:57:01.303Z,6.82
2022-08-05T18:59:44.279Z,7.03
2022-08-05T19:02:27.838Z,8.60
2022-08-05T19:05:03.207Z,7.55
2022-08-05T19:07:50.132Z,7.05
2022-08-05T19:10:27.976Z,9.10
2022-08-05T19:12:58.911Z,6.95
2022-08-05T19:15:57.243Z,6.88
2022-08-05T19:18:21.989Z,7.20
2022-08-05T19:20:53.989Z,10.15
2022-08-05T19:24:03.622Z,6.93
2022-08-05T19:26:08.530Z,7.55
2022-08-05T19:28:42.125Z,8.40
2022-08-05T19:31:13.025Z,6.95
2022-08-05T19:33:48.576Z,6.82
2022-08-05T19:36:23.909Z,7.35
2022-08-05T19:38:51.257Z,7.60
2022-08-05T19:41:22.188Z,7.13
2022-08-05T19:44:13.777Z,6.53
2022-08-05T19:46:41.311Z,6.65
2022-08-05T19:49:12.474Z,6.63
2022-08-05T19:52:05.439Z,5.32
2022-08-05T19:54:32.892Z,6.22
2022-08-05T19:57:06.395Z,5.35
2022-08-05T19:59:56.132Z,6.65
2022-08-05T20:02:25.990Z,5.28
2022-08-05T20:04:53.863Z,6.22
2022-08-05T20:07:47.503Z,5.13
2022-08-05T20:10:13.820Z,7.28
2022-08-05T20:12:47.634Z,4.30
2022-08-05T20:15:48.620Z,5.78
2022-08-05T20:18:10.873Z,5.18
2022-08-05T20:20:55.864Z,5.32
2022-08-05T20:23:39.226Z,4.50
2022-08-05T20:26:16.568Z,4.57
2022-08-05T20:28:50.653Z,7.07
2022-08-05T20:31:21.867Z,4.22
2022-08-05T20:33:55.482Z,4.85
2022-08-05T20:36:24.071Z,5.53
2022-08-05T20:38:54.337Z,5.53
2022-08-05T20:41:26.922Z,5.60
2022-08-05T20:43:59.032Z,4.80
2022-08-05T20:46:27.405Z,4.32
2022-08-05T20:48:54.797Z,4.72
2022-08-05T20:51:21.712Z,4.50
2022-08-05T20:53:56.521Z,3.78
2022-08-05T20:56:29.782Z,4.40
2022-08-05T20:58:59.941Z,5.70
2022-08-05T21:01:40.822Z,3.83
2022-08-05T21:04:10.415Z,5.45
2022-08-05T21:06:45.791Z,4.20
2022-08-05T21:09:14.760Z,3.65
2022-08-05T21:12:07.354Z,5.03
2022-08-05T21:14:35.176Z,3.50
2022-08-05T21:17:05.277Z,4.47
2022-08-05T21:19:47.331Z,3.70
2022-08-05T21:22:18.328Z,3.38
2022-08-05T21:24:48.938Z,2.90
2022-08-05T21:27:20.676Z,4.53
2022-08-05T21:29:52.720Z,4.53
2022-08-05T21:32:23.238Z,3.20
2022-08-05T21:34:55.964Z,4.88
2022-08-05T21:37:41.403Z,2.30
2022-08-05T21:40:13.152Z,4.45
2022-08-05T21:42:44.432Z,4.75
2022-08-05T21:45:13.625Z,3.78
2022-08-05T21:47:55.823Z,2.20
2022-08-05T21:50:24.464Z,3.00
2022-08-05T21:52:51.396Z,2.88
2022-08-05T21:55:42.858Z,2.47
2022-08-05T21:58:06.607Z,1.95
2022-08-05T22:00:33.480Z,1.70
2022-08-05T22:03:00.777Z,2.17
2022-08-05T22:05:27.693Z,2.25
2022-08-05T22:07:54.698Z,1.60
2022-08-05T22:10:27.459Z,2.85
2022-08-05T22:12:57.155Z,2.05
2022-08-05T22:16:04.631Z,2.00
2022-08-05T22:18:11.586Z,3.53
2022-08-05T22:20:39.705Z,5.50
2022-08-05T22:24:00.825Z,3.20
2022-08-05T22:26:41.656Z,2.85
2022-08-05T22:29:35.512Z,3.67
2022-08-05T22:32:03.233Z,2.17
2022-08-05T22:34:31.536Z,3.80
2022-08-05T22:36:58.827Z,2.83
2022-08-05T22:39:31.146Z,3.88
2022-08-05T22:42:09.344Z,2.42
2022-08-05T22:44:53.512Z,3.00
2022-08-05T22:47:29.017Z,2.05
2022-08-05T22:50:20.445Z,2.70
2022-08-05T22:52:45.262Z,2.20
2022-08-05T22:55:19.366Z,2.95
2022-08-05T22:57:49.104Z,3.80
2022-08-05T23:00:17.954Z,3.47
2022-08-05T23:02:48.234Z,1.80
2022-08-05T23:05:16.178Z,2.92
2022-08-05T23:07:45.156Z,1.85
2022-08-05T23:10:15.201Z,2.58
2022-08-05T23:12:43.837Z,1.98
2022-08-05T23:15:11.885Z,3.63
2022-08-05T23:18:01.069Z,2.45
2022-08-05T23:20:25.860Z,2.17
2022-08-05T23:22:55.926Z,2.28
2022-08-05T23:25:50.962Z,2.30
2022-08-05T23:28:11.436Z,3.17
2022-08-05T23:30:43.556Z,4.40
2022-08-05T23:33:22.537Z,2.22
2022-08-05T23:36:01.160Z,4.05
2022-08-05T23:38:27.949Z,2.53
2022-08-05T23:40:54.834Z,1.95
2022-08-05T23:43:25.206Z,3.72
2022-08-05T23:46:20.786Z,1.63
2022-08-05T23:49:00.895Z,2.70
2022-08-05T23:51:53.714Z,3.22
2022-08-05T23:54:33.989Z,2.17
2022-08-05T23:57:04.893Z,2.35
